EDT,Max TemperatureF,Mean TemperatureF,Min TemperatureF,Max Dew PointF,MeanDew PointF,Min DewpointF,Max Humidity, Mean Humidity, Min Humidity, Max Sea Level PressureIn, Mean Sea Level PressureIn, Min Sea Level PressureIn, Max VisibilityMiles, Mean VisibilityMiles, Min VisibilityMiles, Max Wind SpeedMPH, Mean Wind SpeedMPH, Max Gust SpeedMPH,PrecipitationIn, CloudCover, Events, WindDirDegrees
2012-10-1,66,50,33,50,39,34,100,84,45,29.97,29.93,29.86,10,4,0,7,1,,0.00,0,Fog,122
2012-10-2,68,61,54,54,51,47,90,73,52,29.92,29.86,29.82,10,10,5,10,5,,0.11,7,Rain,52
2012-10-3,66,62,57,58,54,50,94,79,64,30.07,30.00,29.90,10,8,1,13,4,16,0.01,8,,205
2012-10-4,75,64,52,58,51,48,90,67,40,30.10,30.06,30.01,10,9,5,17,7,24,0.02,2,Rain,223
2012-10-5,62,53,44,58,46,40,90,77,59,30.08,30.03,29.97,10,10,4,13,9,21,0.23,7,Rain,267
2012-10-6,48,42,36,41,36,32,93,76,54,30.13,30.03,29.95,10,9,5,16,8,28,0.00,6,,264
2012-10-7,48,41,36,39,36,33,93,78,59,30.17,30.12,30.09,10,10,8,7,4,,0.02,7,Rain,297
2012-10-8,54,39,24,36,27,23,100,78,32,30.24,30.18,30.13,10,5,0,13,3,18,0.00,1,Fog,228
2012-10-9,62,44,27,37,32,23,89,62,36,30.14,30.02,29.86,10,10,6,16,5,25,0.00,0,,199
2012-10-10,52,40,27,41,36,25,92,75,49,30.19,29.94,29.81,10,9,5,31,11,41,0.13,7,Rain,278
2012-10-11,62,43,24,35,28,22,96,63,30,30.22,30.15,30.05,10,10,9,22,6,34,0.00,1,,239
2012-10-12,53,42,27,36,30,21,92,68,31,30.44,30.36,30.18,10,10,5,14,7,20,0.00,2,,338
2012-10-13,62,42,23,59,38,21,100,89,73,30.41,30.17,29.91,10,5,1,12,2,,0.78,4,Rain,189
2012-10-14,70,65,57,61,58,51,94,81,65,29.90,29.70,29.44,10,7,2,23,12,38,0.10,7,Rain,208
2012-10-15,55,50,46,47,41,37,82,72,63,29.95,29.79,29.55,10,10,7,30,17,34,0.00,8,Rain,292
2012-10-16,60,46,33,43,36,30,89,64,41,30.01,29.90,29.76,10,10,10,13,6,,0.00,2,,213
2012-10-17,73,62,52,55,47,41,90,62,34,29.75,29.66,29.56,10,10,4,24,9,37,0.36,5,Rain,187
2012-10-18,61,54,48,54,46,35,94,72,41,29.67,29.51,29.38,10,9,2,18,10,28,0.28,6,Rain-Thunderstorm,188
2012-10-19,57,51,45,45,41,35,93,76,51,29.64,29.59,29.55,10,10,6,18,6,23,0.14,7,Rain,178
2012-10-20,55,48,39,46,42,38,93,85,64,29.92,29.68,29.58,10,9,6,15,6,21,0.04,7,,243
2012-10-21,62,46,30,45,36,28,100,85,44,30.11,30.03,29.93,10,4,0,10,3,16,0.00,1,Fog,236
2012-10-22,70,52,35,55,42,34,96,83,57,30.11,30.06,29.98,10,6,0,8,1,,0.04,2,Fog-Rain,181
2012-10-23,73,65,57,59,57,55,94,80,59,30.01,29.96,29.91,10,9,2,8,5,,0.08,7,Rain-Thunderstorm,235
2012-10-24,77,65,55,59,57,54,100,81,54,30.03,30.00,29.96,10,6,0,12,4,,0.04,3,Fog,201
2012-10-25,75,62,48,57,52,47,96,68,43,29.99,29.93,29.85,10,10,9,18,7,30,0.00,1,,197
2012-10-26,66,55,44,54,41,32,87,72,56,30.24,30.10,29.86,10,10,9,21,12,31,0.05,6,Rain,329
2012-10-27,55,46,39,36,32,29,76,60,41,30.22,30.19,30.14,10,10,10,15,10,24,0.00,2,,6
2012-10-28,52,44,37,33,29,26,76,60,44,30.22,30.17,30.12,10,10,10,21,12,30,0.00,3,,13
2012-10-29,43,41,39,30,27,22,65,58,47,30.11,29.99,29.73,10,10,10,26,17,43,0.00,8,Rain,351
2012-10-30,41,38,35,36,32,26,93,81,65,29.69,29.52,29.45,10,9,3,30,24,46,0.06,8,Rain-Snow,345
2012-10-31,42,38,35,38,35,34,93,89,81,29.68,29.59,29.52,10,8,2,20,14,31,0.00,8,Rain,319